Colfax, West Virginia
Current Conditions -  °F | °C
As of 4:53 AM on Sunday 25 Jan 2015 (Local Time) from KCKB Reporting Station
Overcast Overcast  
Wind Chill: 27°   Ceiling: 3300
Heat Index: 33°   Visibility: 7mi
Dew Point: 30°   Wind: 7mph
Humidity: 89%   Direction: 200°SSW
Pressure: 29.78"   Gusts: NA
Location:  39.43°N, 80.13°W
Report Text: KCKB 250953Z AUTO 20006KT 7SM SCT012 OVC033 01/M01 A2978 RMK AO2 SLP089 T00061011 TSNO
Loading
Personal Weather Stations






























Interactive Weather Map New forecast layout! Learn more

10-Day Weather Forecast

Advertisements
Track Severe Weather on mobile